Aktualne dane pomiarowe

Uwaga, wersja testowa! Automatyczne pobieranie danych za pomocą narzędzi lub skryptów to umożliwiających jest zabronione.

Dane meteo z obszaru Polski uzyskane na podstawie depesz SYNOP pobieranych co godzinę z NWS. Najedź myszką na symbol przedstawiony w tabeli, aby uzyskać informacje co do jego znaczenia. Prosimy pamiętać, że to testowa wersja strony, która jeszcze nie jest ukończona. Stworzono również jest krótki FAQ dotyczący korzystania z tej podstrony Anomalie temperatury w chwili obecnej odniesione są do okresu referencyjnego 1951-2016. Okres ten będzie później zmieniony na 1981-2010. Kliknij ikonę aby pobrać plik CSV. Kliknij ikonę aby wygenerować mapę synoptyczną dla danego terminu.

Wybierz Datę:    

        

Nowy Sącz (12660)

Dane terminowe dla wybranej stacji. Kliknij datę, aby otrzymać dane z tego terminu dla wszystkich stacji.

TemperaturaZachmurzenieWiatrCiśnienieOpadyPogoda
 Data t td wb tx tn tg rh  Nt Nl Cl Cm Ch ws wd g1 g2 wx mslp ppp ch 24h 12h t ww ww w1 w2  
2019-06-19 23:00:00 17.3 16.2 16.5--- 9311.0--1wx---1012.3 977.8 -0.7---------
2019-06-19 22:00:00 17.7 16.6 16.9--- 9310.0--2wx---1012.6 978.1 -0.3---wx-----
2019-06-19 21:00:00 18.7 17.2 17.6--- 9114.0--1wx--11012.7 978.3 -0.2---------
2019-06-19 20:00:00 18.9 17.2 17.7--- 9013.0--2wx--21012.9 978.5 0.5---------
2019-06-19 19:00:00 19.6 17.6 18.2--- 8816.0--2wx--21012.7 978.4 0.2---------
2019-06-19 18:00:00 20.3 17.7 18.4 28.9 18.0- 8518.0--1wx-911012.7 978.5 -0.3- 0.712------
2019-06-19 17:00:00 20.7 18.5 19.1--- 8712.0--1wx--11012.1 978.0 0.0---wx-----
2019-06-19 16:00:00 20.7 17.3 18.3--- 8110.0--2wx--21012.3 978.2 0.3---wx-----
2019-06-19 15:00:00 24.0 15.5 18.5--- 5930.0--3wx---1012.6 978.8 0.2---------
2019-06-19 14:00:00 28.2 16.1 20.4--- 4830.0--4wx-941011.3 978.0 -1.4---------
2019-06-19 13:00:00 28.7 15.9 20.5--- 4611.0--3wx-631011.1 977.9 -1.8---------
2019-06-19 12:00:00 27.4 16.7 20.4--- 5228.0--1wx--11012.0 978.6 -1.5- 0.06------
2019-06-19 11:00:00 26.4 16.9 20.1--- 5622.0--1wx--11012.9 979.4 -1.3---------
2019-06-19 10:00:00 27.5 15.8 20.0--- 4924.0--1wx--11013.1 979.7 -1.2---------
2019-06-19 09:00:00 25.1 17.3 19.9--- 6224.0--1wx--11013.8 980.1 -1.1---------
2019-06-19 08:00:00 23.1 16.9 18.9--- 6822.0--1wx---1014.6 980.7 -0.4---------
2019-06-19 07:00:00 20.5 17.1 18.1--- 8118.0--1wx--11015.1 980.9 -0.2---------
2019-06-19 06:00:00 18.0 16.7 17.1 22.0 14.8 14 929.0--1wx--11015.8 981.2 0.1--12wx---- 3.3
2019-06-19 05:00:00 16.6 16.3 16.4--- 982.9--1wx--11015.8 981.1 -0.1---wx-----
2019-06-19 04:00:00 15.4 14.9 15.0--- 970.3--1wx--11016.0 981.1 -0.1---wx-----
2019-06-19 03:00:00 14.9 14.4 14.5--- 970.2--1wx---1016.0 981.1 -0.7---wx-----
2019-06-19 02:00:00 15.1 14.5 14.6--- 962.2--1wx--11016.1 981.2 -1.1---wx-----
2019-06-19 01:00:00 15.7 15.1 15.2--- 962.9--1wx--11016.0 981.2 -1.2---wx-----
2019-06-19 00:00:00 15.7 14.7 15.0--- 941.1--1wx--11016.7 981.8 -0.6--6wx-----
2019-06-18 23:00:00 16.6 15.8 16.0--- 952.2--1wx--11017.1 982.3 -0.4---wx-----
2019-06-18 22:00:00 17.2 16.2 16.5--- 942.4--1wx---1017.1 982.4 -0.3---wx-----
2019-06-18 21:00:00 18.1 16.8 17.2--- 922.3--1wx--11017.0 982.4 -0.1---wx-----
2019-06-18 20:00:00 19.1 17.2 17.7--- 896.0--1wx--11017.2 982.7 0.1---wx-----
2019-06-18 19:00:00 20.6 16.8 18.0--- 7910.0--1wx--11017.0 982.7 -0.2---------
2019-06-18 18:00:00 22.0 16.5 18.3 23.8 13.5- 7114.0--2wx-721016.6 982.5 -0.6--12wx-----
2019-06-18 17:00:00 22.6 16.6 18.6--- 6915.0--1wx---1016.7 982.6 -0.9---wx-----
2019-06-18 16:00:00 22.6 16.2 18.3--- 6721.0--3wx--31017.0 982.9 -0.9---------
2019-06-18 15:00:00 22.8 16.1 18.3--- 6616.0--3wx---1017.1 983.1 -1.4---------
2019-06-18 14:00:00 23.2 15.5 18.2--- 6217.0--2wx--21017.5 983.5 -1.3---------
2019-06-18 13:00:00 22.6 15.2 17.8--- 6316.0--3wx--31017.9 983.8 -1.2---------
2019-06-18 12:00:00 22.1 15.2 17.6--- 6519.0--2wx-721018.7 984.5 -0.8- 0.06------
2019-06-18 11:00:00 21.6 14.7 17.1--- 6518.0--1wx--11019.0 984.8 -0.7---------
2019-06-18 10:00:00 21.3 14.5 16.9--- 6523.0--3wx--31019.3 985.0 -1.0---------
2019-06-18 09:00:00 20.9 14.1 16.5--- 6530.0--3wx-731019.6 985.3 -1.0---------
2019-06-18 08:00:00 18.8 12.8 14.9--- 6825.0--1wx--11020.1 985.5 -0.6---------
2019-06-18 07:00:00 16.5 11.8 13.5--- 7427.0--1wx---1020.9 986.0 0.0---------
2019-06-18 06:00:00 13.5 11.7 12.2 19.0 10.8 10 8921.0--1wx--11021.6 986.3 0.3 0.1 0.012----- 4.2
2019-06-18 05:00:00 12.3 11.2 11.5--- 9318.0--1wx--11021.5 986.1 0.2---------
2019-06-18 04:00:00 11.5 10.7 10.9--- 9514.0--1wx--11021.5 986.0 0.1---------
2019-06-18 03:00:00 10.9 10.0 10.2--- 9411.0--0---01021.6 986.0 -0.2---wx-----
2019-06-18 02:00:00 11.2 10.3 10.5--- 9410.0--1wx---1021.5 985.9 -0.4---------
2019-06-18 01:00:00 11.4 10.3 10.6--- 9310.0--0----1021.4 985.9 -0.6---wx-----
2019-06-18 00:00:00 11.9 10.3 10.8--- 9016.0--1wx--11021.7 986.2 -0.3- 0.06------
1.4 ms

 

Print Friendly, PDF & Email